Weather History for Gustavus, AK

Change the Weather History Date:

Monday, February 3, 2014

  Actual Average Record
Temperature  
Mean Temperature 26 °F -  
Max Temperature 37 °F 32 °F 48 °F (2012)
Min Temperature 15 °F 21 °F -10 °F (1968)
Degree Days  
Heating Degree Days 39    
Moisture  
Dew Point 12 °F    
Average Humidity 59    
Maximum Humidity 100    
Minimum Humidity 28    
Precipitation  
Precipitation 0.00 in - - ()
Sea Level Pressure  
Sea Level Pressure 30.55 in    
Wind  
Wind Speed 3 mph (North)    
Max Wind Speed 9 mph    
Max Gust Speed 16 mph    
Visibility 10 miles    
Events      
Averages and records for this station are not official NWS values.
T = Trace of Precipitation, MM = Missing Value Source: NWS Daily Summary

Daily Weather History Graph

Daily Weather History Graph

Search for Another Location

Airport:

Trip Planner

Search our weather history database for the weather conditions in past years. The results will help you decide how hot, cold, wet, or windy it might be!

Date:

Astronomy

Feb. 03, 2014 Rise Set
Actual Time 8:03 AM AKST 4:30 PM AKST
Civil Twilight 7:19 AM AKST 5:14 PM AKST
Nautical Twilight 6:31 AM AKST 6:02 PM AKST
Astronomical Twilight 5:45 AM AKST 6:48 PM AKST
Moon 9:00 AM AKST (2/3) 10:47 PM AKST (2/3)
Length of Visible Light 9h 55m
Length of Day
8h 27m
Waxing Crescent, 21% of the Moon is Illuminated
Feb 3
Waxing Crescent
Feb 6
First Quarter
Feb 14
Full
Feb 22
Last Quarter
Feb 28
New

Hourly Weather History & Observations

Time (AKST) Temp. Windchill Dew Point Humidity Pressure Visibility Wind Dir Wind Speed Gust Speed Precip Events Conditions
12:16 AM 23.0 °F - 19.4 °F 86% 30.48 in 10.0 mi Calm Calm - N/A   Clear
12:36 AM 24.8 °F 20.5 °F 19.4 °F 80% 30.48 in 10.0 mi North 3.5 mph - N/A   Clear
12:56 AM 24.8 °F 19.1 °F 14.0 °F 64% 30.48 in 10.0 mi North 4.6 mph - N/A   Clear
1:16 AM 24.8 °F 19.1 °F 15.8 °F 69% 30.48 in 10.0 mi NNW 4.6 mph - N/A   Clear
1:36 AM 26.6 °F 20.0 °F 15.8 °F 64% 30.48 in 10.0 mi NNW 5.8 mph - N/A   Clear
1:56 AM 23.0 °F - 17.6 °F 80% 30.48 in 10.0 mi Calm Calm - N/A   Clear
2:16 AM 21.2 °F - 17.6 °F 86% 30.48 in 10.0 mi Calm Calm - N/A   Clear
2:36 AM 21.2 °F - 17.6 °F 86% 30.48 in 10.0 mi Calm Calm - N/A   Clear
2:56 AM 23.0 °F 18.4 °F 15.8 °F 74% 30.48 in 10.0 mi North 3.5 mph - N/A   Clear
3:16 AM 21.2 °F - 19.4 °F 93% 30.48 in 10.0 mi Calm Calm - N/A   Clear
3:36 AM 19.4 °F 12.8 °F 17.6 °F 93% 30.48 in 10.0 mi NNW 4.6 mph - N/A   Clear
3:56 AM 19.4 °F 12.8 °F 15.8 °F 86% 30.47 in 10.0 mi NNW 4.6 mph - N/A   Clear
4:16 AM 21.2 °F - 15.8 °F 80% 30.48 in 10.0 mi Calm Calm - N/A   Clear
4:36 AM 19.4 °F 14.3 °F 15.8 °F 86% 30.48 in 10.0 mi NNW 3.5 mph - N/A   Clear
4:56 AM 19.4 °F 11.5 °F 12.2 °F 74% 30.49 in 10.0 mi NNW 5.8 mph - N/A   Clear
5:16 AM 17.6 °F 8.2 °F 15.8 °F 93% 30.49 in 10.0 mi North 6.9 mph - N/A   Clear
5:36 AM 17.6 °F - 15.8 °F 93% 30.49 in 10.0 mi Calm Calm - N/A   Clear
5:56 AM 17.6 °F - 12.2 °F 79% 30.49 in 10.0 mi Calm Calm - N/A   Clear
6:16 AM 21.2 °F - 15.8 °F 80% 30.49 in 10.0 mi Calm Calm - N/A   Clear
6:36 AM 17.6 °F - 10.4 °F 73% 30.49 in 10.0 mi Calm Calm - N/A   Clear
6:56 AM 17.6 °F 9.3 °F 12.2 °F 79% 30.50 in 10.0 mi NNW 5.8 mph - N/A   Clear
7:16 AM 17.6 °F - 12.2 °F 79% 30.50 in 10.0 mi Calm Calm - N/A   Clear
7:36 AM 17.6 °F - 15.8 °F 93% 30.50 in 10.0 mi Calm Calm - N/A   Clear
7:56 AM 15.8 °F 7.2 °F 15.8 °F 100% 30.51 in 10.0 mi NNW 5.8 mph - N/A   Clear
8:16 AM 15.8 °F 10.2 °F 12.2 °F 86% 30.51 in 10.0 mi NNW 3.5 mph - N/A   Clear
8:36 AM 15.8 °F 10.2 °F 12.2 °F 86% 30.52 in 10.0 mi North 3.5 mph - N/A   Clear
8:56 AM 17.6 °F - 12.2 °F 79% 30.52 in 10.0 mi Calm Calm - N/A   Clear
9:36 AM 21.2 °F - 15.8 °F 80% 30.53 in 10.0 mi Calm Calm - N/A   Clear
9:56 AM 23.0 °F - 17.6 °F 80% 30.53 in 10.0 mi Calm Calm - N/A   Clear
10:16 AM 24.8 °F 20.5 °F 17.6 °F 74% 30.53 in 10.0 mi NNW 3.5 mph - N/A   Clear
10:36 AM 28.4 °F 24.6 °F 21.2 °F 74% 30.54 in 10.0 mi NW 3.5 mph - N/A   Clear
10:56 AM 30.2 °F - 19.4 °F 64% 30.54 in 10.0 mi Calm Calm - N/A   Clear
11:16 AM 33.8 °F - 21.2 °F 60% 30.54 in 10.0 mi Calm Calm - N/A   Clear
11:36 AM 35.6 °F 32.8 °F 19.4 °F 52% 30.54 in 10.0 mi NNW 3.5 mph - N/A   Clear
11:56 AM 35.6 °F - 15.8 °F 44% 30.54 in 10.0 mi Calm Calm - N/A   Clear
12:16 PM 37.4 °F 32.1 °F 8.6 °F 30% 30.54 in 10.0 mi ENE 6.9 mph - N/A   Clear
12:36 PM 37.4 °F 32.1 °F 10.4 °F 33% 30.54 in 10.0 mi ENE 6.9 mph 16.1 mph N/A   Clear
12:56 PM 37.4 °F 30.8 °F 8.6 °F 30% 30.54 in 10.0 mi NNE 9.2 mph - N/A   Clear
1:16 PM 37.4 °F 33.8 °F 8.6 °F 30% 30.55 in 10.0 mi ENE 4.6 mph - N/A   Clear
1:36 PM 37.4 °F 33.8 °F 6.8 °F 28% 30.55 in 10.0 mi East 4.6 mph - N/A   Clear
1:56 PM 37.4 °F - 8.6 °F 30% 30.55 in 10.0 mi Calm Calm - N/A   Clear
2:16 PM 37.4 °F - 12.2 °F 36% 30.55 in 10.0 mi Calm Calm - N/A   Clear
2:36 PM 37.4 °F - 8.6 °F 30% 30.55 in 10.0 mi Calm Calm - N/A   Clear
2:56 PM 37.4 °F - 8.6 °F 30% 30.56 in 10.0 mi Calm Calm - N/A   Clear
3:16 PM 37.4 °F 32.1 °F 6.8 °F 28% 30.56 in 10.0 mi NE 6.9 mph - N/A   Clear
3:36 PM 35.6 °F 31.7 °F 6.8 °F 30% 30.57 in 10.0 mi NE 4.6 mph - N/A   Clear
3:56 PM 35.6 °F - 6.8 °F 30% 30.57 in 10.0 mi Calm Calm - N/A   Clear
4:16 PM 35.6 °F 30.7 °F 6.8 °F 30% 30.58 in 10.0 mi NNE 5.8 mph - N/A   Clear
4:36 PM 33.8 °F 29.6 °F 6.8 °F 32% 30.58 in 10.0 mi NNE 4.6 mph - N/A   Clear
4:56 PM 33.8 °F 29.6 °F 6.8 °F 32% 30.59 in 10.0 mi NE 4.6 mph - N/A   Clear
5:16 PM 33.8 °F 30.8 °F 5.0 °F 30% 30.59 in 10.0 mi North 3.5 mph - N/A   Clear
5:36 PM 28.4 °F - 12.2 °F 51% 30.59 in 10.0 mi Calm Calm - N/A   Clear
5:56 PM 30.2 °F 26.7 °F 10.4 °F 44% 30.60 in 10.0 mi ENE 3.5 mph - N/A   Clear
6:16 PM 26.6 °F 20.0 °F 12.2 °F 55% 30.60 in 10.0 mi NNE 5.8 mph - N/A   Clear
6:36 PM 32.0 °F 27.5 °F 10.4 °F 41% 30.60 in 10.0 mi ENE 4.6 mph - N/A   Clear
6:56 PM 30.2 °F - 6.8 °F 37% 30.60 in 10.0 mi Calm Calm - N/A   Clear
7:16 PM 24.8 °F 20.5 °F 15.8 °F 69% 30.61 in 10.0 mi NNE 3.5 mph - N/A   Clear
7:36 PM 26.6 °F 19.1 °F 8.6 °F 47% 30.61 in 10.0 mi NNE 6.9 mph - N/A   Clear
7:56 PM 28.4 °F - 6.8 °F 40% 30.62 in 10.0 mi Calm Calm - N/A   Clear
8:16 PM 30.2 °F 24.3 °F 8.6 °F 40% 30.62 in 10.0 mi NNE 5.8 mph - N/A   Clear
8:36 PM 28.4 °F 22.2 °F 8.6 °F 43% 30.63 in 10.0 mi NNE 5.8 mph - N/A   Clear
8:56 PM 28.4 °F 21.2 °F 8.6 °F 43% 30.63 in 10.0 mi North 6.9 mph - N/A   Clear
9:16 PM 28.4 °F - 8.6 °F 43% 30.63 in 10.0 mi Calm Calm - N/A   Clear
9:36 PM 26.6 °F - 8.6 °F 47% 30.63 in 10.0 mi Calm Calm - N/A   Clear
9:56 PM 24.8 °F 17.9 °F 10.4 °F 54% 30.63 in 10.0 mi NNW 5.8 mph - N/A   Clear
10:16 PM 26.6 °F 22.6 °F 10.4 °F 51% 30.63 in 10.0 mi WNW 3.5 mph - N/A   Clear
10:36 PM 24.8 °F 17.9 °F 10.4 °F 54% 30.64 in 10.0 mi NNW 5.8 mph - N/A   Clear
10:56 PM 30.2 °F 24.3 °F 8.6 °F 40% 30.64 in 10.0 mi NNE 5.8 mph - N/A   Clear
11:16 PM 32.0 °F 27.5 °F 5.0 °F 32% 30.65 in 10.0 mi NNW 4.6 mph - N/A   Clear
11:36 PM 26.6 °F - 8.6 °F 47% 30.65 in 10.0 mi Calm Calm - N/A   Clear
11:56 PM 26.6 °F 21.2 °F 8.6 °F 47% 30.66 in 10.0 mi North 4.6 mph - N/A   Clear